Time;durP1;ratioP1;P1;durP2;ratioP2;P2;SDS_P1;SDS_P2;PMS_P1;PMS_P2;Temp;Humidity;BMP_temperature;BMP_pressure;BME280_temperature;BME280_humidity;BME280_pressure;Samples;Min_cycle;Max_cycle;Signal;HPM_P1;HPM_P2
2022/10/30 00:02:14;;;;;;;8.20;3.28;;;;;;;;;;5025053;28;20121;-64
2022/10/30 00:04:42;;;;;;;9.32;3.55;;;;;;;;;;5034907;28;20037;-64
2022/10/30 00:07:08;;;;;;;10.35;3.70;;;;;;;;;;5027298;28;20057;-63
2022/10/30 00:09:36;;;;;;;9.77;3.40;;;;;;;;;;5020830;28;20060;-63
2022/10/30 00:12:03;;;;;;;7.63;3.30;;;;;;;;;;5027962;28;20060;-64
2022/10/30 00:14:30;;;;;;;7.18;3.53;;;;;;;;;;5037943;28;20061;-64
2022/10/30 00:16:57;;;;;;;7.78;3.40;;;;;;;;;;5027835;28;20064;-64
2022/10/30 00:19:23;;;;;;;7.47;3.42;;;;;;;;;;5025146;28;20053;-64
2022/10/30 00:21:50;;;;;;;7.10;3.08;;;;;;;;;;5012481;28;20073;-64
2022/10/30 00:24:16;;;;;;;8.45;3.30;;;;;;;;;;5018609;28;20052;-64
2022/10/30 00:26:44;;;;;;;7.90;3.45;;;;;;;;;;5020475;28;20057;-64
2022/10/30 00:29:11;;;;;;;9.30;3.67;;;;;;;;;;5029866;28;20053;-64
2022/10/30 00:31:37;;;;;;;7.60;3.67;;;;;;;;;;5025136;28;20057;-64
2022/10/30 00:34:04;;;;;;;7.95;3.30;;;;;;;;;;5046821;28;20149;-64
2022/10/30 00:36:30;;;;;;;8.00;3.22;;;;;;;;;;5023987;28;20057;-64
2022/10/30 00:38:57;;;;;;;9.85;3.50;;;;;;;;;;5029486;28;20049;-63
2022/10/30 00:41:24;;;;;;;11.60;4.25;;;;;;;;;;5034289;28;20056;-62
2022/10/30 00:43:52;;;;;;;7.95;3.33;;;;;;;;;;5045502;28;20053;-64
2022/10/30 00:46:21;;;;;;;8.38;3.38;;;;;;;;;;5021301;28;20100;-64
2022/10/30 00:48:49;;;;;;;7.75;3.22;;;;;;;;;;5029520;28;20057;-64
2022/10/30 00:51:16;;;;;;;8.95;3.47;;;;;;;;;;5024314;28;20056;-64
2022/10/30 00:53:43;;;;;;;6.88;2.88;;;;;;;;;;5030000;28;20057;-64
2022/10/30 00:56:11;;;;;;;6.97;3.10;;;;;;;;;;5021482;28;20052;-63
2022/10/30 00:58:39;;;;;;;9.93;4.25;;;;;;;;;;5009620;28;20053;-64
2022/10/30 01:01:09;;;;;;;17.70;4.88;;;;;;;;;;5004256;28;20195;-64
2022/10/30 01:03:37;;;;;;;8.45;3.60;;;;;;;;;;5007002;28;20107;-64
2022/10/30 01:06:07;;;;;;;7.53;3.63;;;;;;;;;;5009568;28;20057;-64
2022/10/30 01:08:34;;;;;;;9.48;3.30;;;;;;;;;;5005066;28;20057;-64
2022/10/30 01:11:02;;;;;;;7.22;3.28;;;;;;;;;;5010047;28;20076;-63
2022/10/30 01:13:29;;;;;;;8.40;3.30;;;;;;;;;;5003762;28;20084;-63
2022/10/30 01:16:06;;;;;;;7.30;2.95;;;;;;;;;;5010186;28;20049;-64
2022/10/30 01:18:42;;;;;;;7.57;3.50;;;;;;;;;;5000252;28;20062;-64
2022/10/30 01:21:14;;;;;;;8.93;3.15;;;;;;;;;;5012786;28;20095;-64
2022/10/30 01:23:48;;;;;;;11.02;3.05;;;;;;;;;;5008098;28;20084;-64
2022/10/30 01:26:18;;;;;;;9.50;2.97;;;;;;;;;;5009864;28;20056;-64
2022/10/30 01:28:53;;;;;;;8.30;3.05;;;;;;;;;;5001221;28;20080;-64
2022/10/30 01:31:25;;;;;;;8.70;3.13;;;;;;;;;;5010082;28;20054;-63
2022/10/30 01:34:00;;;;;;;5.72;2.70;;;;;;;;;;4998607;28;20060;-63
2022/10/30 01:36:30;;;;;;;7.28;2.90;;;;;;;;;;5008896;28;20049;-63
2022/10/30 01:38:58;;;;;;;9.73;4.07;;;;;;;;;;5002535;28;20185;-64
2022/10/30 01:41:25;;;;;;;7.63;3.30;;;;;;;;;;5009240;28;20049;-62
2022/10/30 01:43:54;;;;;;;8.82;2.97;;;;;;;;;;5003008;28;22535;-64
2022/10/30 01:46:32;;;;;;;7.78;3.47;;;;;;;;;;5008968;28;20053;-64
2022/10/30 01:49:08;;;;;;;7.47;3.10;;;;;;;;;;5001559;28;20058;-64
2022/10/30 01:51:41;;;;;;;11.38;3.42;;;;;;;;;;5009153;28;20053;-64
2022/10/30 01:54:14;;;;;;;7.60;3.28;;;;;;;;;;5002539;28;20084;-64
2022/10/30 01:56:45;;;;;;;9.10;3.35;;;;;;;;;;5017075;28;20057;-64
2022/10/30 01:59:15;;;;;;;8.55;3.05;;;;;;;;;;5035995;28;20063;-64
2022/10/30 02:01:41;;;;;;;5.88;2.83;;;;;;;;;;5023843;28;20045;-64
2022/10/30 02:04:10;;;;;;;14.68;3.67;;;;;;;;;;5019565;28;20049;-62
2022/10/30 02:06:37;;;;;;;6.30;3.10;;;;;;;;;;5044458;28;20068;-64
2022/10/30 02:09:04;;;;;;;9.65;3.13;;;;;;;;;;5035493;28;20089;-64
2022/10/30 02:11:32;;;;;;;8.20;3.13;;;;;;;;;;5023593;28;20057;-64
2022/10/30 02:14:03;;;;;;;9.25;3.03;;;;;;;;;;5018963;28;20053;-63
2022/10/30 02:16:29;;;;;;;6.95;3.20;;;;;;;;;;5025000;28;20065;-64
2022/10/30 02:18:57;;;;;;;8.30;3.28;;;;;;;;;;5024209;28;20056;-63
2022/10/30 02:21:25;;;;;;;8.95;3.30;;;;;;;;;;5021448;28;20120;-64
2022/10/30 02:23:51;;;;;;;5.57;2.83;;;;;;;;;;5025217;28;20060;-63
2022/10/30 02:26:18;;;;;;;8.35;3.47;;;;;;;;;;5022371;28;20044;-64
2022/10/30 02:28:44;;;;;;;8.65;3.15;;;;;;;;;;5024756;28;20065;-64
2022/10/30 02:31:11;;;;;;;9.52;3.30;;;;;;;;;;5018733;28;20057;-64
2022/10/30 02:33:37;;;;;;;7.47;3.03;;;;;;;;;;5025144;28;20146;-64
2022/10/30 02:36:04;;;;;;;5.43;2.75;;;;;;;;;;5022562;28;20122;-63
2022/10/30 02:38:32;;;;;;;8.88;3.80;;;;;;;;;;5024132;28;20056;-64
2022/10/30 02:40:59;;;;;;;8.38;3.50;;;;;;;;;;5024500;28;20056;-63
2022/10/30 02:43:25;;;;;;;6.13;2.72;;;;;;;;;;5024929;28;20053;-64
2022/10/30 02:45:52;;;;;;;6.18;2.75;;;;;;;;;;5025477;28;20049;-64
2022/10/30 02:48:19;;;;;;;6.82;2.92;;;;;;;;;;5046146;28;20056;-64
2022/10/30 02:53:23;;;;;;;;;;;;;;;;;;5133963;23;20053;-63
2022/10/30 02:55:53;;;;;;;5.32;2.53;;;;;;;;;;5026835;28;19974;-64
2022/10/30 02:58:19;;;;;;;7.15;3.08;;;;;;;;;;5012536;28;20073;-64
2022/10/30 03:00:46;;;;;;;11.35;3.00;;;;;;;;;;5029136;28;20049;-64
2022/10/30 03:03:13;;;;;;;9.27;3.13;;;;;;;;;;5015272;28;20053;-64
2022/10/30 03:05:39;;;;;;;7.85;3.30;;;;;;;;;;5021323;28;20064;-63
2022/10/30 03:08:06;;;;;;;8.00;3.08;;;;;;;;;;5021319;28;20046;-64
2022/10/30 03:10:32;;;;;;;9.45;3.25;;;;;;;;;;5031940;28;20060;-62
2022/10/30 03:13:00;;;;;;;8.10;3.22;;;;;;;;;;5022131;28;20140;-65
2022/10/30 03:15:27;;;;;;;10.02;3.50;;;;;;;;;;5014033;28;20065;-64
2022/10/30 03:17:54;;;;;;;8.27;3.15;;;;;;;;;;5028672;28;20052;-64
2022/10/30 03:20:20;;;;;;;6.10;3.13;;;;;;;;;;5014060;28;20045;-64
2022/10/30 03:22:47;;;;;;;14.10;4.95;;;;;;;;;;5028833;28;20057;-63
2022/10/30 03:25:14;;;;;;;8.02;3.30;;;;;;;;;;5014071;28;20057;-64
2022/10/30 03:27:40;;;;;;;8.43;2.88;;;;;;;;;;5027463;28;20056;-63
2022/10/30 03:30:10;;;;;;;7.80;3.22;;;;;;;;;;5017229;28;20060;-62
2022/10/30 03:32:36;;;;;;;12.70;4.30;;;;;;;;;;5026162;28;20048;-63
2022/10/30 03:35:03;;;;;;;5.97;2.67;;;;;;;;;;5026938;28;20065;-62
2022/10/30 03:37:30;;;;;;;9.02;3.78;;;;;;;;;;5013356;28;20080;-64
2022/10/30 03:39:56;;;;;;;8.63;3.22;;;;;;;;;;5026995;28;20065;-64
2022/10/30 03:42:23;;;;;;;6.78;3.13;;;;;;;;;;5017194;28;20073;-64
2022/10/30 03:44:51;;;;;;;7.22;2.63;;;;;;;;;;5018992;28;20073;-64
2022/10/30 03:47:19;;;;;;;11.40;3.03;;;;;;;;;;5013212;28;20060;-64
2022/10/30 03:49:46;;;;;;;7.18;3.08;;;;;;;;;;5026603;28;20064;-64
2022/10/30 03:52:15;;;;;;;6.50;3.00;;;;;;;;;;5020444;28;20136;-63
2022/10/30 03:54:41;;;;;;;;;;;;;;;;;;5017147;28;20057;-64
2022/10/30 03:57:08;;;;;;;7.03;2.97;;;;;;;;;;5022601;28;19939;-63
2022/10/30 03:59:34;;;;;;;6.88;2.90;;;;;;;;;;5009467;28;20049;-63
2022/10/30 04:02:00;;;;;;;7.32;2.80;;;;;;;;;;5014610;28;20065;-61
2022/10/30 04:04:32;;;;;;;6.20;2.72;;;;;;;;;;5007617;28;20144;-64
2022/10/30 04:06:58;;;;;;;7.15;2.90;;;;;;;;;;5027048;28;20053;-62
2022/10/30 04:09:25;;;;;;;7.80;2.90;;;;;;;;;;5015658;28;20050;-63
2022/10/30 04:11:52;;;;;;;5.85;2.60;;;;;;;;;;5020439;28;20045;-63
2022/10/30 04:14:18;;;;;;;7.60;2.90;;;;;;;;;;5001038;28;20050;-63
2022/10/30 04:16:45;;;;;;;6.03;2.67;;;;;;;;;;5024336;28;20077;-63
2022/10/30 04:19:11;;;;;;;7.60;3.00;;;;;;;;;;5026801;28;20053;-63
2022/10/30 04:21:42;;;;;;;6.35;2.70;;;;;;;;;;5002671;28;20141;-62
2022/10/30 04:24:08;;;;;;;6.57;2.58;;;;;;;;;;5007225;28;20057;-62
2022/10/30 04:26:35;;;;;;;8.10;3.10;;;;;;;;;;5013846;28;20053;-63
2022/10/30 04:29:02;;;;;;;9.27;2.90;;;;;;;;;;5026956;28;20057;-62
2022/10/30 04:31:28;;;;;;;5.47;2.33;;;;;;;;;;5005548;28;20127;-63
2022/10/30 04:33:56;;;;;;;6.93;3.05;;;;;;;;;;5007269;28;20053;-64
2022/10/30 04:36:28;;;;;;;9.57;2.95;;;;;;;;;;5010283;28;20099;-64
2022/10/30 04:38:56;;;;;;;14.90;4.40;;;;;;;;;;5020412;28;20053;-63
2022/10/30 04:41:24;;;;;;;8.43;3.00;;;;;;;;;;5001170;28;20065;-63
2022/10/30 04:43:50;;;;;;;7.28;2.90;;;;;;;;;;5006826;28;20058;-63
2022/10/30 04:46:17;;;;;;;7.35;3.40;;;;;;;;;;5004831;28;20049;-62
2022/10/30 04:48:43;;;;;;;8.77;3.00;;;;;;;;;;5006992;28;20053;-64
2022/10/30 04:51:10;;;;;;;10.95;3.05;;;;;;;;;;5001159;28;20053;-62
2022/10/30 04:53:37;;;;;;;7.50;3.08;;;;;;;;;;5025553;28;20152;-64
2022/10/30 04:56:06;;;;;;;6.22;2.72;;;;;;;;;;5023665;28;20049;-63
2022/10/30 04:58:32;;;;;;;8.13;2.85;;;;;;;;;;5029780;28;20121;-62
2022/10/30 05:01:01;;;;;;;12.43;3.63;;;;;;;;;;5030501;28;20068;-62
2022/10/30 05:03:28;;;;;;;9.40;3.20;;;;;;;;;;5019068;28;20045;-62
2022/10/30 05:05:56;;;;;;;9.95;4.00;;;;;;;;;;5024082;28;20057;-62
2022/10/30 05:08:23;;;;;;;6.22;2.80;;;;;;;;;;5019778;28;20127;-62
2022/10/30 05:10:49;;;;;;;14.45;4.20;;;;;;;;;;5026602;28;20068;-63
2022/10/30 05:13:18;;;;;;;7.72;3.40;;;;;;;;;;5018525;28;20060;-63
2022/10/30 05:18:15;;;;;;;5.70;2.55;;;;;;;;;;5016619;28;19925;-64
2022/10/30 05:20:41;;;;;;;7.85;2.88;;;;;;;;;;5018423;28;20107;-63
2022/10/30 05:23:09;;;;;;;8.57;3.10;;;;;;;;;;5019932;28;20156;-64
2022/10/30 05:25:36;;;;;;;5.43;2.72;;;;;;;;;;5025082;28;20136;-63
2022/10/30 05:28:04;;;;;;;8.10;2.92;;;;;;;;;;5019428;28;20110;-65
2022/10/30 05:30:33;;;;;;;5.75;2.65;;;;;;;;;;5021998;28;20064;-64
2022/10/30 05:32:59;;;;;;;;;;;;;;;;;;5021014;28;20175;-64
2022/10/30 05:35:26;;;;;;;6.57;2.75;;;;;;;;;;5026562;28;19925;-64
2022/10/30 05:37:53;;;;;;;8.38;2.85;;;;;;;;;;5015708;28;20170;-64
2022/10/30 05:40:20;;;;;;;7.50;2.85;;;;;;;;;;5027716;28;20059;-63
2022/10/30 05:42:47;;;;;;;9.45;2.58;;;;;;;;;;5027355;28;20180;-64
2022/10/30 05:45:16;;;;;;;6.80;3.15;;;;;;;;;;5029128;28;20049;-63
2022/10/30 05:47:45;;;;;;;7.38;2.55;;;;;;;;;;5026528;28;20135;-63
2022/10/30 05:50:12;;;;;;;6.07;2.85;;;;;;;;;;5017126;28;20088;-63
2022/10/30 05:52:39;;;;;;;5.55;2.53;;;;;;;;;;5026443;28;20056;-64
2022/10/30 05:55:05;;;;;;;6.32;2.90;;;;;;;;;;5021303;28;20163;-63
2022/10/30 05:57:32;;;;;;;7.50;3.00;;;;;;;;;;5024272;28;20045;-64
2022/10/30 05:59:59;;;;;;;6.97;2.88;;;;;;;;;;5018186;28;20055;-63
2022/10/30 06:02:26;;;;;;;8.68;2.70;;;;;;;;;;5023248;28;20082;-64
2022/10/30 06:04:55;;;;;;;9.68;3.83;;;;;;;;;;5012873;28;20057;-63
2022/10/30 06:07:21;;;;;;;11.60;3.88;;;;;;;;;;5027014;28;20055;-64
2022/10/30 06:09:48;;;;;;;15.23;3.25;;;;;;;;;;5019312;28;20138;-63
2022/10/30 06:12:15;;;;;;;6.68;3.13;;;;;;;;;;5025985;28;20053;-64
2022/10/30 06:14:43;;;;;;;6.38;3.15;;;;;;;;;;5019375;28;20060;-63
2022/10/30 06:17:10;;;;;;;;;;;;;;;;;;5020539;28;20080;-64
2022/10/30 06:19:36;;;;;;;15.10;3.20;;;;;;;;;;5018970;28;19924;-64
2022/10/30 06:22:04;;;;;;;7.38;2.90;;;;;;;;;;5026058;28;20132;-63
2022/10/30 06:24:31;;;;;;;6.82;2.75;;;;;;;;;;5018724;28;20166;-63
2022/10/30 06:26:58;;;;;;;8.55;2.88;;;;;;;;;;5021984;28;20060;-63
2022/10/30 06:29:24;;;;;;;9.20;3.10;;;;;;;;;;5027055;28;20068;-63
2022/10/30 06:31:51;;;;;;;6.88;3.20;;;;;;;;;;5016953;28;20057;-62
2022/10/30 06:34:17;;;;;;;13.68;4.05;;;;;;;;;;5026448;28;20059;-64
2022/10/30 06:36:44;;;;;;;9.40;3.25;;;;;;;;;;5018646;28;20056;-63
2022/10/30 06:39:14;;;;;;;6.57;2.83;;;;;;;;;;5025468;28;20152;-63
2022/10/30 06:41:40;;;;;;;6.28;2.80;;;;;;;;;;5019939;28;20064;-63
2022/10/30 06:44:07;;;;;;;11.27;3.00;;;;;;;;;;5026316;28;20109;-63
2022/10/30 06:46:33;;;;;;;7.45;2.83;;;;;;;;;;5010451;28;20050;-64
2022/10/30 06:49:00;;;;;;;6.25;2.83;;;;;;;;;;5024499;28;20053;-63
2022/10/30 06:51:26;;;;;;;6.60;2.78;;;;;;;;;;5018358;28;20063;-64
2022/10/30 06:53:54;;;;;;;6.32;2.92;;;;;;;;;;5023102;28;20045;-63
2022/10/30 06:56:22;;;;;;;6.57;2.97;;;;;;;;;;5017343;28;20080;-63
2022/10/30 06:58:49;;;;;;;7.13;3.13;;;;;;;;;;5026135;28;20068;-64
2022/10/30 07:01:16;;;;;;;6.55;2.78;;;;;;;;;;5035791;28;20053;-63
2022/10/30 07:03:44;;;;;;;6.40;2.50;;;;;;;;;;5022453;28;20055;-63
2022/10/30 07:06:10;;;;;;;17.33;4.65;;;;;;;;;;5019729;28;20057;-64
2022/10/30 07:08:37;;;;;;;13.02;4.38;;;;;;;;;;5025205;28;20045;-64
2022/10/30 07:11:03;;;;;;;6.80;3.08;;;;;;;;;;5037406;28;20064;-65
2022/10/30 07:13:32;;;;;;;10.82;3.42;;;;;;;;;;5018523;28;20060;-63
2022/10/30 07:15:58;;;;;;;;;;;;;;;;;;5026683;28;20049;-63
2022/10/30 07:18:25;;;;;;;8.75;3.88;;;;;;;;;;5018988;28;19962;-62
2022/10/30 07:20:54;;;;;;;8.80;3.42;;;;;;;;;;5025339;28;20072;-63
2022/10/30 07:23:21;;;;;;;7.68;3.22;;;;;;;;;;5014304;28;20056;-63
2022/10/30 07:25:47;;;;;;;6.75;2.88;;;;;;;;;;5024598;28;20061;-63
2022/10/30 07:28:14;;;;;;;10.13;3.03;;;;;;;;;;5014239;28;20080;-63
2022/10/30 07:30:42;;;;;;;6.65;3.10;;;;;;;;;;5020639;28;20142;-64
2022/10/30 07:33:10;;;;;;;9.00;2.95;;;;;;;;;;5015827;28;20106;-64
2022/10/30 07:35:37;;;;;;;5.95;2.60;;;;;;;;;;5027713;28;20053;-63
2022/10/30 07:38:05;;;;;;;7.03;2.63;;;;;;;;;;5020315;28;20121;-63
2022/10/30 07:40:31;;;;;;;17.20;6.05;;;;;;;;;;5027289;28;20059;-63
2022/10/30 07:42:59;;;;;;;7.22;3.25;;;;;;;;;;5015811;28;20068;-63
2022/10/30 07:45:25;;;;;;;9.18;3.03;;;;;;;;;;5028047;28;20123;-62
2022/10/30 07:47:53;;;;;;;8.20;3.47;;;;;;;;;;5022343;28;20601;-63
2022/10/30 07:50:20;;;;;;;15.98;6.40;;;;;;;;;;5025981;28;20049;-64
2022/10/30 07:52:47;;;;;;;17.35;7.10;;;;;;;;;;5016379;28;20060;-64
2022/10/30 07:55:13;;;;;;;16.42;5.47;;;;;;;;;;5028417;28;20053;-63
2022/10/30 07:57:41;;;;;;;9.68;4.53;;;;;;;;;;5026112;28;20068;-63
2022/10/30 08:00:09;;;;;;;11.13;4.72;;;;;;;;;;5021745;28;20064;-63
2022/10/30 08:02:35;;;;;;;14.83;4.87;;;;;;;;;;5025163;28;20176;-63
2022/10/30 08:05:04;;;;;;;11.80;3.90;;;;;;;;;;5017251;28;20315;-63
2022/10/30 08:07:30;;;;;;;9.23;3.50;;;;;;;;;;5025905;28;20045;-63
2022/10/30 08:09:57;;;;;;;11.30;5.43;;;;;;;;;;5021117;28;20048;-64
2022/10/30 08:12:24;;;;;;;8.02;3.97;;;;;;;;;;5044509;28;20056;-64
2022/10/30 08:14:51;;;;;;;10.43;4.00;;;;;;;;;;5018036;28;20139;-63
2022/10/30 08:17:17;;;;;;;12.13;5.88;;;;;;;;;;5026205;28;20045;-63
2022/10/30 08:19:44;;;;;;;13.95;5.72;;;;;;;;;;5021690;28;20111;-63
2022/10/30 08:22:12;;;;;;;16.67;6.30;;;;;;;;;;5019250;28;20087;-63
2022/10/30 08:24:39;;;;;;;19.95;7.03;;;;;;;;;;5014587;28;20055;-63
2022/10/30 08:27:06;;;;;;;15.93;6.63;;;;;;;;;;5044519;28;20053;-63
2022/10/30 08:29:33;;;;;;;11.10;4.95;;;;;;;;;;5025554;28;20064;-63
2022/10/30 08:32:00;;;;;;;8.73;4.13;;;;;;;;;;5040273;28;20072;-64
2022/10/30 08:34:27;;;;;;;18.65;5.97;;;;;;;;;;5006801;28;20049;-63
2022/10/30 08:36:53;;;;;;;11.48;4.85;;;;;;;;;;5013010;28;20072;-63
2022/10/30 08:39:21;;;;;;;16.10;5.45;;;;;;;;;;5022219;28;20053;-63
2022/10/30 08:41:48;;;;;;;10.68;4.50;;;;;;;;;;5019951;28;20044;-63
2022/10/30 08:44:14;;;;;;;13.65;5.70;;;;;;;;;;5010468;28;20103;-63
2022/10/30 08:46:41;;;;;;;14.05;5.88;;;;;;;;;;5019448;28;20045;-63
2022/10/30 08:49:08;;;;;;;10.30;4.32;;;;;;;;;;5029926;28;20041;-62
2022/10/30 08:51:35;;;;;;;19.13;6.63;;;;;;;;;;5036506;28;20129;-63
2022/10/30 08:54:02;;;;;;;17.48;7.63;;;;;;;;;;5010469;28;20045;-63
2022/10/30 08:56:30;;;;;;;10.98;5.05;;;;;;;;;;5010434;28;20061;-63
2022/10/30 08:58:56;;;;;;;11.57;5.28;;;;;;;;;;5008929;28;20064;-63
2022/10/30 09:01:23;;;;;;;10.63;4.85;;;;;;;;;;5000557;28;20057;-63
2022/10/30 09:03:50;;;;;;;16.92;7.50;;;;;;;;;;5006562;28;20053;-63
2022/10/30 09:06:16;;;;;;;24.13;7.18;;;;;;;;;;4999937;28;20053;-63
2022/10/30 09:08:43;;;;;;;10.38;4.22;;;;;;;;;;5006600;28;20156;-63
2022/10/30 09:11:09;;;;;;;16.90;6.53;;;;;;;;;;5004125;28;20088;-63
2022/10/30 09:13:37;;;;;;;15.18;6.43;;;;;;;;;;5010028;28;20104;-63
2022/10/30 09:16:04;;;;;;;12.95;5.07;;;;;;;;;;5005565;28;20071;-63
2022/10/30 09:18:31;;;;;;;11.00;4.45;;;;;;;;;;5005833;28;20058;-63
2022/10/30 09:20:58;;;;;;;19.77;7.68;;;;;;;;;;4999296;28;20115;-63
2022/10/30 09:23:24;;;;;;;23.55;6.95;;;;;;;;;;4999164;28;20057;-63
2022/10/30 09:25:51;;;;;;;17.33;7.43;;;;;;;;;;5009752;28;20064;-63
2022/10/30 09:28:17;;;;;;;11.10;5.20;;;;;;;;;;4999673;28;20062;-63
2022/10/30 09:30:48;;;;;;;13.00;5.32;;;;;;;;;;4989848;28;20271;-64
2022/10/30 09:33:14;;;;;;;12.13;5.50;;;;;;;;;;4994680;28;20069;-63
2022/10/30 09:35:41;;;;;;;19.48;6.13;;;;;;;;;;5009458;28;20046;-63
2022/10/30 09:38:09;;;;;;;17.40;6.03;;;;;;;;;;5000086;28;20050;-63
2022/10/30 09:40:41;;;;;;;10.40;5.30;;;;;;;;;;4989845;28;20068;-64
2022/10/30 09:43:13;;;;;;;10.48;4.60;;;;;;;;;;4993508;28;20119;-63
2022/10/30 09:45:55;;;;;;;18.30;7.30;;;;;;;;;;5009016;28;20067;-65
2022/10/30 09:48:35;;;;;;;17.98;8.20;;;;;;;;;;4992150;28;20069;-66
2022/10/30 09:51:08;;;;;;;19.80;8.05;;;;;;;;;;4989448;28;20084;-64
2022/10/30 09:53:42;;;;;;;26.15;8.57;;;;;;;;;;4995524;28;20249;-63
2022/10/30 09:56:12;;;;;;;17.30;8.00;;;;;;;;;;5008800;28;20084;-64
2022/10/30 09:58:45;;;;;;;17.50;7.35;;;;;;;;;;5003076;28;20069;-64
2022/10/30 10:01:17;;;;;;;19.08;7.38;;;;;;;;;;5009024;28;20124;-63
2022/10/30 10:03:52;;;;;;;14.93;7.22;;;;;;;;;;5003720;28;20099;-64
2022/10/30 10:06:19;;;;;;;21.10;7.63;;;;;;;;;;5006938;28;20059;-64
2022/10/30 10:08:48;;;;;;;19.27;6.97;;;;;;;;;;4995605;28;20049;-62
2022/10/30 10:11:16;;;;;;;15.95;7.30;;;;;;;;;;5008854;28;20249;-64
2022/10/30 10:13:45;;;;;;;20.77;7.25;;;;;;;;;;4994314;28;20052;-64
2022/10/30 10:16:19;;;;;;;15.00;6.60;;;;;;;;;;4998562;28;20107;-63
2022/10/30 10:18:46;;;;;;;13.52;7.20;;;;;;;;;;4997457;28;20065;-64
2022/10/30 10:21:15;;;;;;;19.27;7.32;;;;;;;;;;5028996;28;20057;-63
2022/10/30 10:23:47;;;;;;;21.45;7.47;;;;;;;;;;5020321;28;20053;-64
2022/10/30 10:26:19;;;;;;;18.45;8.65;;;;;;;;;;4989151;28;20081;-63
2022/10/30 10:28:51;;;;;;;23.80;8.80;;;;;;;;;;4989453;28;20057;-63
2022/10/30 10:31:32;;;;;;;16.67;7.75;;;;;;;;;;4988298;28;20053;-64
2022/10/30 10:34:09;;;;;;;20.55;8.10;;;;;;;;;;4988677;28;20046;-63
2022/10/30 10:36:42;;;;;;;22.85;9.93;;;;;;;;;;4979820;28;20054;-64
2022/10/30 10:39:20;;;;;;;20.85;8.45;;;;;;;;;;4988447;28;20057;-64
2022/10/30 10:42:04;;;;;;;24.08;8.27;;;;;;;;;;4988477;28;20075;-64
2022/10/30 10:44:37;;;;;;;17.00;7.55;;;;;;;;;;4989558;28;20064;-63
2022/10/30 10:47:09;;;;;;;22.52;7.88;;;;;;;;;;4988689;28;20054;-64
2022/10/30 10:49:41;;;;;;;22.10;9.32;;;;;;;;;;4987221;28;20141;-63
2022/10/30 10:52:09;;;;;;;20.33;8.35;;;;;;;;;;5006606;28;20057;-63
2022/10/30 10:54:38;;;;;;;19.83;9.18;;;;;;;;;;4988709;28;20057;-64
2022/10/30 10:57:06;;;;;;;18.50;8.80;;;;;;;;;;4999641;28;20111;-63
2022/10/30 10:59:34;;;;;;;15.77;7.53;;;;;;;;;;4990780;28;20057;-63
2022/10/30 11:02:11;;;;;;;16.63;8.40;;;;;;;;;;4983500;28;20100;-62
2022/10/30 11:04:40;;;;;;;16.43;6.07;;;;;;;;;;5005654;28;20064;-63
2022/10/30 11:07:06;;;;;;;;;;;;;;;;;;4987005;28;20085;-62
2022/10/30 11:09:33;;;;;;;17.63;7.55;;;;;;;;;;4998539;28;19937;-62
2022/10/30 11:12:00;;;;;;;18.40;8.48;;;;;;;;;;4998922;28;20061;-62
2022/10/30 11:14:28;;;;;;;19.15;8.77;;;;;;;;;;4996976;28;20050;-62
2022/10/30 11:17:01;;;;;;;23.52;9.45;;;;;;;;;;4987776;28;20061;-63
2022/10/30 11:19:29;;;;;;;25.05;9.85;;;;;;;;;;4992036;28;20140;-63
2022/10/30 11:21:57;;;;;;;20.38;8.25;;;;;;;;;;5003641;28;20049;-66
2022/10/30 11:24:29;;;;;;;13.18;6.65;;;;;;;;;;5011647;28;20073;-66
2022/10/30 11:26:56;;;;;;;17.08;6.65;;;;;;;;;;5002176;28;20054;-66
2022/10/30 11:29:24;;;;;;;19.98;8.48;;;;;;;;;;5006590;28;20070;-66
2022/10/30 11:32:00;;;;;;;23.92;8.75;;;;;;;;;;5005324;28;20144;-65
2022/10/30 11:34:31;;;;;;;29.60;12.25;;;;;;;;;;4997181;28;20133;-65
2022/10/30 11:36:59;;;;;;;30.02;11.52;;;;;;;;;;4984887;28;20050;-66
2022/10/30 11:39:27;;;;;;;24.08;10.50;;;;;;;;;;4991940;28;20140;-65
2022/10/30 11:42:05;;;;;;;20.80;8.45;;;;;;;;;;4987330;28;20058;-65
2022/10/30 11:44:33;;;;;;;19.08;7.70;;;;;;;;;;4991343;28;20057;-67
2022/10/30 11:46:59;;;;;;;23.02;8.93;;;;;;;;;;4987220;28;20076;-66
2022/10/30 11:49:30;;;;;;;20.30;8.60;;;;;;;;;;4997533;28;20058;-67
2022/10/30 11:51:56;;;;;;;23.90;8.57;;;;;;;;;;4985397;28;20062;-67
2022/10/30 11:54:25;;;;;;;21.30;8.60;;;;;;;;;;5023632;28;20048;-66
2022/10/30 11:56:53;;;;;;;25.75;8.98;;;;;;;;;;5030925;28;20071;-67
2022/10/30 11:59:21;;;;;;;19.23;8.25;;;;;;;;;;5021871;28;20065;-67
2022/10/30 12:01:58;;;;;;;19.75;9.25;;;;;;;;;;5030772;28;20068;-65
2022/10/30 12:04:27;;;;;;;17.08;7.85;;;;;;;;;;5021200;28;20055;-65
2022/10/30 12:07:06;;;;;;;19.15;7.60;;;;;;;;;;5030970;28;20055;-65
2022/10/30 12:09:43;;;;;;;15.95;7.40;;;;;;;;;;5024883;28;20126;-66
2022/10/30 12:12:19;;;;;;;23.08;8.27;;;;;;;;;;5031025;28;20049;-67
2022/10/30 12:14:45;;;;;;;24.27;9.13;;;;;;;;;;5001089;28;20053;-64
2022/10/30 12:17:14;;;;;;;20.38;8.35;;;;;;;;;;5010698;28;20059;-67
2022/10/30 12:19:45;;;;;;;20.55;7.90;;;;;;;;;;5014754;28;20053;-66
2022/10/30 12:22:23;;;;;;;25.48;8.38;;;;;;;;;;5010043;28;20146;-66
2022/10/30 12:24:52;;;;;;;17.70;8.00;;;;;;;;;;5029011;28;20182;-65
2022/10/30 12:27:19;;;;;;;27.75;9.07;;;;;;;;;;5050961;28;20083;-65
2022/10/30 12:29:51;;;;;;;17.83;7.70;;;;;;;;;;5036396;28;20062;-67
2022/10/30 12:32:19;;;;;;;18.38;8.85;;;;;;;;;;5047688;28;20044;-66
2022/10/30 12:34:47;;;;;;;21.13;8.77;;;;;;;;;;5030201;28;20064;-67
2022/10/30 12:37:16;;;;;;;22.42;8.23;;;;;;;;;;5030526;28;20053;-66
2022/10/30 12:39:54;;;;;;;18.20;6.97;;;;;;;;;;5018603;28;20135;-66
2022/10/30 12:42:23;;;;;;;24.23;8.27;;;;;;;;;;5010266;28;20072;-65
2022/10/30 12:44:53;;;;;;;20.70;8.68;;;;;;;;;;5016407;28;20088;-63
2022/10/30 12:47:23;;;;;;;19.35;7.15;;;;;;;;;;5030260;28;20056;-62
2022/10/30 12:49:50;;;;;;;21.02;8.38;;;;;;;;;;5024249;28;20056;-63
2022/10/30 12:52:19;;;;;;;25.30;8.98;;;;;;;;;;5049433;28;20071;-64
2022/10/30 12:54:50;;;;;;;24.25;7.90;;;;;;;;;;5028376;28;20119;-64
2022/10/30 12:57:20;;;;;;;20.48;8.95;;;;;;;;;;5010091;28;20076;-64
2022/10/30 12:59:53;;;;;;;19.23;8.10;;;;;;;;;;5016616;28;20049;-64
2022/10/30 13:02:23;;;;;;;25.55;8.73;;;;;;;;;;5029697;28;20061;-63
2022/10/30 13:04:54;;;;;;;20.80;7.45;;;;;;;;;;5016685;28;20057;-63
2022/10/30 13:07:24;;;;;;;15.88;7.40;;;;;;;;;;5033941;28;20057;-64
2022/10/30 13:10:03;;;;;;;18.45;8.43;;;;;;;;;;5029423;28;20053;-64
2022/10/30 13:12:33;;;;;;;19.13;10.02;;;;;;;;;;5006746;28;20107;-64
2022/10/30 13:15:03;;;;;;;20.33;8.45;;;;;;;;;;5022770;28;20067;-65
2022/10/30 13:17:30;;;;;;;15.90;8.27;;;;;;;;;;5005369;28;20053;-64
2022/10/30 13:19:57;;;;;;;18.98;7.72;;;;;;;;;;5024643;28;20061;-65
2022/10/30 13:22:25;;;;;;;22.95;8.48;;;;;;;;;;5022554;28;20060;-64
2022/10/30 13:24:57;;;;;;;32.17;10.40;;;;;;;;;;5017403;28;20058;-64
2022/10/30 13:27:28;;;;;;;21.48;10.20;;;;;;;;;;5004710;28;20123;-64
2022/10/30 13:30:00;;;;;;;14.82;7.00;;;;;;;;;;5021259;28;20052;-64
2022/10/30 13:32:31;;;;;;;19.95;8.85;;;;;;;;;;5021699;28;20067;-62
2022/10/30 13:35:04;;;;;;;14.75;7.32;;;;;;;;;;5016900;28;20081;-64
2022/10/30 13:37:34;;;;;;;25.17;9.48;;;;;;;;;;5025552;28;20068;-65
2022/10/30 13:40:05;;;;;;;18.13;7.60;;;;;;;;;;5024039;28;20053;-66
2022/10/30 13:42:47;;;;;;;22.83;9.43;;;;;;;;;;5004274;28;20053;-67
2022/10/30 13:45:28;;;;;;;20.85;8.85;;;;;;;;;;5022595;28;20170;-62
2022/10/30 13:48:00;;;;;;;15.77;7.75;;;;;;;;;;5030113;28;20064;-65
2022/10/30 13:50:36;;;;;;;22.15;8.93;;;;;;;;;;5014053;28;20073;-65
2022/10/30 13:53:04;;;;;;;26.15;10.07;;;;;;;;;;5013470;28;20079;-65
2022/10/30 13:55:31;;;;;;;;;;;;;;;;;;5029164;28;20041;-62
2022/10/30 13:58:02;;;;;;;22.77;9.65;;;;;;;;;;5012351;28;19929;-63
2022/10/30 14:00:34;;;;;;;20.33;10.18;;;;;;;;;;5009330;28;20065;-63
2022/10/30 14:03:09;;;;;;;22.80;10.55;;;;;;;;;;5011751;28;20162;-64
2022/10/30 14:05:38;;;;;;;28.15;9.50;;;;;;;;;;5026771;28;20045;-65
2022/10/30 14:08:08;;;;;;;25.45;10.32;;;;;;;;;;5016838;28;20056;-64
2022/10/30 14:10:42;;;;;;;26.77;9.68;;;;;;;;;;5024503;28;20045;-63
2022/10/30 14:13:14;;;;;;;21.17;10.10;;;;;;;;;;5022952;28;20106;-61
2022/10/30 14:15:42;;;;;;;27.25;10.57;;;;;;;;;;5027941;28;20147;-64
2022/10/30 14:18:23;;;;;;;24.13;9.82;;;;;;;;;;5018696;28;20094;-65
2022/10/30 14:20:50;;;;;;;23.13;9.90;;;;;;;;;;5024459;28;20182;-62
2022/10/30 14:23:20;;;;;;;29.48;10.23;;;;;;;;;;5021876;28;20057;-65
2022/10/30 14:26:03;;;;;;;25.05;10.23;;;;;;;;;;5012434;28;20065;-64
2022/10/30 14:28:30;;;;;;;20.50;10.30;;;;;;;;;;5004525;28;20063;-65
2022/10/30 14:31:01;;;;;;;21.65;9.68;;;;;;;;;;5028671;28;20056;-64
2022/10/30 14:33:37;;;;;;;20.80;10.05;;;;;;;;;;5003233;28;20061;-65
2022/10/30 14:36:14;;;;;;;24.63;11.15;;;;;;;;;;5027748;28;20057;-64
2022/10/30 14:38:40;;;;;;;24.25;10.95;;;;;;;;;;5021381;28;20053;-63
2022/10/30 14:41:17;;;;;;;23.75;10.77;;;;;;;;;;5025942;28;20106;-62
2022/10/30 14:43:48;;;;;;;27.80;11.75;;;;;;;;;;5024477;28;20068;-64
2022/10/30 14:46:19;;;;;;;22.50;10.48;;;;;;;;;;5008134;28;20076;-64
2022/10/30 14:48:52;;;;;;;30.83;10.60;;;;;;;;;;5008127;28;20084;-64
2022/10/30 14:51:21;;;;;;;27.77;10.32;;;;;;;;;;5003245;28;20168;-64
2022/10/30 14:53:53;;;;;;;26.92;11.18;;;;;;;;;;5005049;28;20050;-65